Weather - Helsinki Query any day in the database

Current weather  

Weather data for a selected day (2006-01-01 -2020-10-30)
Enter date:     <-     scroll days         ->
day curves
Low temperature°C +19.703:30
High temperature°C +31.214:30
Low wind chill°C 19.703:30
Average temperature°C +26.5 
High wind speed (10 min) m/s 9.714:30
Low pressurehPa 1014.421:00
High pressurehPa 1016.409:30
Low R.H% 2917:00
High R.H% 6703:00
Day weather data as a table
Date Time Temp
°C
Chill
°C
Pressure
hPA
Wind
m/s
Hum
%
Precip
mm
2018-07-17 23:30:00 24.5  ....  1015.4 2.6 47 -
2018-07-17 23:00:00 25.4  ....  1015.4 3.0 44 -
2018-07-17 22:30:00 26.9  ....  1015.1 3.7 39 -
2018-07-17 22:00:00 27.7  ....  1014.7 4.6 36 -
2018-07-17 21:30:00 28.1  ....  1014.5 3.6 37 -
2018-07-17 21:00:00 28.8  ....  1014.4 4.0 36 -
2018-07-17 20:30:00 29.5  ....  1014.4 3.8 34 -
2018-07-17 20:00:00 29.8  ....  1014.4 3.2 33 -
2018-07-17 19:30:00 30.1  ....  1014.5 3.2 33 -
2018-07-17 19:00:00 30.2  ....  1014.6 3.8 31 -
2018-07-17 18:30:00 29.9  ....  1014.8 4.4 32 -
2018-07-17 18:00:00 30.3  ....  1014.8 4.9 31 -
2018-07-17 17:30:00 30.5  ....  1014.9 6.2 30 -
2018-07-17 17:00:00 31.1  ....  1015.0 5.6 29 -
2018-07-17 16:30:00 30.5  ....  1015.2 6.4 31 -
2018-07-17 16:00:00 30.8  ....  1015.3 5.7 30 -
2018-07-17 15:30:00 30.8  ....  1015.5 7.7 30 -
2018-07-17 15:00:00 30.7  ....  1015.5 8.8 31 -
2018-07-17 14:30:00 31.2  ....  1015.4 9.7 30 -
2018-07-17 14:00:00 31.2  ....  1015.5 6.2 32 -
2018-07-17 13:30:00 30.4  ....  1015.6 4.7 31 -
2018-07-17 13:00:00 30.8  ....  1015.6 5.3 31 -
2018-07-17 12:30:00 30.6  ....  1015.8 6.8 31 -
2018-07-17 12:00:00 30.7  ....  1015.8 4.3 32 -
2018-07-17 11:30:00 30.5  ....  1015.8 4.9 31 -
2018-07-17 11:00:00 29.7  ....  1015.9 4.1 32 -
2018-07-17 10:30:00 29.0  ....  1016.1 3.2 34 -
2018-07-17 10:00:00 28.3  ....  1016.2 3.8 37 -
2018-07-17 09:30:00 27.3  ....  1016.4 3.5 39 -
2018-07-17 09:00:00 26.4  ....  1016.3 3.1 43 -
2018-07-17 08:30:00 25.6  ....  1016.2 2.8 45 -
2018-07-17 08:00:00 23.8  ....  1016.3 4.0 50 -
2018-07-17 07:30:00 22.9  ....  1016.3 3.4 54 -
2018-07-17 07:00:00 22.0  ....  1016.3 2.5 55 -
2018-07-17 06:30:00 21.5  ....  1016.3 2.3 56 -
2018-07-17 06:00:00 20.7  ....  1016.2 2.4 57 -
2018-07-17 05:30:00 20.4  ....  1016.2 2.5 59 -
2018-07-17 05:00:00 20.1  ....  1016.2 3.2 59 -
2018-07-17 04:30:00 20.4  ....  1016.2 3.8 58 -
2018-07-17 04:00:00 19.8  19.8  1016.0 3.5 62 -
2018-07-17 03:30:00 19.7  19.7  1015.9 2.7 64 -
2018-07-17 03:00:00 19.9  19.9  1015.9 2.9 67 -
2018-07-17 02:30:00 21.0  ....  1015.9 4.2 63 -
2018-07-17 02:00:00 21.5  ....  1015.9 4.7 61 -
2018-07-17 01:30:00 22.3  ....  1015.8 4.5 59 -
2018-07-17 01:00:00 22.1  ....  1015.9 2.6 59 -
2018-07-17 00:30:00 23.9  ....  1015.8 3.4 53 -
2018-07-17 00:00:00 23.8  ....  1015.7 3.2 53 -
Unit conversions: